Time;durP1;ratioP1;P1;durP2;ratioP2;P2;SDS_P1;SDS_P2;PMS_P1;PMS_P2;Temp;Humidity;BMP_temperature;BMP_pressure;BME280_temperature;BME280_humidity;BME280_pressure;Samples;Min_cycle;Max_cycle;Signal;HPM_P1;HPM_P2
2022/08/29 00:01:04;;;;;;;0.30;0.30;;;16.10;99.90;;;;;;5049075;28;20313;-84
2022/08/29 00:03:29;;;;;;;;;;;16.10;99.90;;;;;;5057090;28;20049;-85
2022/08/29 00:05:55;;;;;;;0.32;0.32;;;16.10;99.90;;;;;;5083212;28;20393;-85
2022/08/29 00:08:21;;;;;;;0.17;0.07;;;16.10;99.90;;;;;;5069856;28;20036;-86
2022/08/29 00:10:47;;;;;;;0.15;0.15;;;16.10;99.90;;;;;;5056267;28;20394;-85
2022/08/29 00:13:13;;;;;;;0.32;0.20;;;16.10;99.90;;;;;;5055267;28;20045;-85
2022/08/29 00:15:40;;;;;;;0.20;0.17;;;16.10;99.90;;;;;;5064230;28;20052;-85
2022/08/29 00:18:06;;;;;;;1.58;0.22;;;16.10;99.90;;;;;;5069303;28;20044;-85
2022/08/29 00:20:34;;;;;;;0.10;0.10;;;16.10;99.90;;;;;;5060492;28;20160;-85
2022/08/29 00:23:00;;;;;;;0.25;0.25;;;16.10;99.90;;;;;;5062840;28;20048;-84
2022/08/29 00:25:26;;;;;;;;;;;16.10;99.90;;;;;;5064894;28;20043;-85
2022/08/29 00:27:52;;;;;;;0.15;0.13;;;16.10;99.90;;;;;;5084016;28;19920;-84
2022/08/29 00:30:20;;;;;;;0.10;0.10;;;16.10;99.90;;;;;;5057006;28;20095;-84
2022/08/29 00:32:46;;;;;;;0.32;0.20;;;16.10;99.90;;;;;;5053298;28;20126;-84
2022/08/29 00:35:15;;;;;;;0.20;0.20;;;16.10;99.90;;;;;;5054609;28;20044;-84
2022/08/29 00:37:41;;;;;;;0.10;0.10;;;16.10;99.90;;;;;;5058377;28;20041;-84
2022/08/29 00:40:17;;;;;;;1.05;0.28;;;16.10;99.90;;;;;;5051984;28;20045;-85
2022/08/29 00:42:43;;;;;;;0.65;0.10;;;16.00;99.90;;;;;;5064070;28;20544;-85
2022/08/29 00:45:10;;;;;;;0.80;0.17;;;16.00;99.90;;;;;;5073625;28;20546;-84
2022/08/29 00:47:43;;;;;;;0.32;0.30;;;16.00;99.90;;;;;;5069996;28;20048;-86
2022/08/29 00:50:23;;;;;;;0.20;0.10;;;16.00;99.90;;;;;;5042329;28;20072;-86
2022/08/29 00:52:49;;;;;;;0.22;0.15;;;16.00;99.90;;;;;;5053971;28;20585;-85
2022/08/29 00:55:21;;;;;;;1.38;0.43;;;16.00;99.90;;;;;;5072648;28;20176;-85
2022/08/29 00:57:51;;;;;;;0.00;0.00;;;15.90;99.90;;;;;;5055144;28;20079;-84
2022/08/29 01:00:18;;;;;;;0.10;0.10;;;15.90;99.90;;;;;;5034108;28;20052;-86
2022/08/29 01:02:46;;;;;;;0.52;0.00;;;15.90;99.90;;;;;;5031121;28;20099;-85
2022/08/29 01:05:14;;;;;;;0.52;0.30;;;15.90;99.90;;;;;;5073161;28;20041;-84
2022/08/29 01:07:41;;;;;;;0.40;0.20;;;16.00;99.90;;;;;;5039115;28;20113;-85
2022/08/29 01:10:08;;;;;;;0.28;0.10;;;16.00;99.90;;;;;;5051914;28;20081;-84
2022/08/29 01:12:35;;;;;;;0.25;0.20;;;16.00;99.90;;;;;;5052200;28;20048;-84
2022/08/29 01:15:03;;;;;;;;;;;16.00;99.90;;;;;;5037849;28;20052;-85
2022/08/29 01:17:46;;;;;;;0.40;0.20;;;16.00;99.90;;;;;;5054595;28;19928;-87
2022/08/29 01:20:43;;;;;;;0.17;0.17;;;16.00;99.90;;;;;;5038348;28;20124;-85
2022/08/29 01:23:25;;;;;;;0.30;0.10;;;16.00;99.90;;;;;;5038340;28;20455;-84
2022/08/29 01:25:52;;;;;;;0.55;0.32;;;16.00;99.90;;;;;;5068945;28;20620;-85
2022/08/29 01:28:22;;;;;;;1.08;0.30;;;16.00;99.90;;;;;;5055734;28;20196;-85
2022/08/29 01:31:05;;;;;;;1.08;0.30;;;16.00;99.90;;;;;;5034029;28;20112;-84
2022/08/29 01:33:45;;;;;;;0.40;0.35;;;16.00;99.90;;;;;;5057552;28;20109;-87
2022/08/29 01:36:17;;;;;;;0.10;0.10;;;16.00;99.90;;;;;;5053973;28;20529;-84
2022/08/29 01:38:43;;;;;;;0.30;0.30;;;16.00;99.90;;;;;;5051117;28;20045;-84
2022/08/29 01:41:09;;;;;;;0.22;0.20;;;16.00;99.90;;;;;;5052561;28;20056;-84
2022/08/29 01:43:43;;;;;;;0.30;0.30;;;16.00;99.90;;;;;;5049226;28;20052;-85
2022/08/29 01:46:11;;;;;;;0.00;0.00;;;16.00;99.90;;;;;;5035533;28;20438;-85
2022/08/29 01:48:39;;;;;;;0.10;0.10;;;16.00;99.90;;;;;;5043484;28;20060;-85
2022/08/29 01:51:05;;;;;;;0.15;0.10;;;16.00;99.90;;;;;;5053299;28;20513;-84
2022/08/29 01:53:31;;;;;;;0.10;0.10;;;16.00;99.90;;;;;;5059216;28;20048;-85
2022/08/29 01:55:56;;;;;;;1.08;0.25;;;16.00;99.90;;;;;;5071829;28;20471;-85
2022/08/29 01:58:22;;;;;;;0.22;0.10;;;16.00;99.90;;;;;;5071941;28;20048;-85
2022/08/29 02:00:48;;;;;;;0.57;0.10;;;16.00;99.90;;;;;;5051933;28;20045;-84
2022/08/29 02:03:14;;;;;;;0.03;0.03;;;16.00;99.90;;;;;;5058237;28;20098;-85
2022/08/29 02:05:40;;;;;;;0.17;0.17;;;16.00;99.90;;;;;;5052447;28;20040;-85
2022/08/29 02:08:05;;;;;;;0.07;0.07;;;16.00;99.90;;;;;;5054236;28;20048;-84
2022/08/29 02:10:31;;;;;;;0.03;0.03;;;15.90;99.90;;;;;;5072157;28;20053;-84
2022/08/29 02:12:57;;;;;;;0.23;0.00;;;15.90;99.90;;;;;;5048849;28;20056;-85
2022/08/29 02:15:23;;;;;;;0.67;0.63;;;15.90;99.90;;;;;;5015581;28;20095;-85
2022/08/29 02:17:49;;;;;;;0.20;0.20;;;15.90;99.90;;;;;;5055436;28;20102;-85
2022/08/29 02:20:14;;;;;;;0.10;0.10;;;15.90;99.90;;;;;;5019788;28;20437;-85
2022/08/29 02:22:41;;;;;;;0.30;0.17;;;15.90;99.90;;;;;;5037557;28;20037;-85
2022/08/29 02:27:54;;;;;;;0.97;0.40;;;15.90;99.90;;;;;;5063273;28;20391;-85
2022/08/29 02:30:21;;;;;;;0.40;0.40;;;15.90;99.90;;;;;;5050164;28;20086;-85
2022/08/29 02:32:47;;;;;;;0.10;0.10;;;15.90;99.90;;;;;;5046511;28;20048;-85
2022/08/29 02:35:13;;;;;;;;;;;15.90;99.90;;;;;;5052227;28;20045;-84
2022/08/29 02:37:39;;;;;;;0.10;0.08;;;15.90;99.90;;;;;;5050142;28;20012;-87
2022/08/29 02:40:05;;;;;;;0.37;0.17;;;15.90;99.90;;;;;;5033108;28;20124;-85
2022/08/29 02:42:31;;;;;;;0.20;0.20;;;15.90;99.90;;;;;;5033595;28;20052;-85
2022/08/29 02:44:57;;;;;;;0.47;0.10;;;15.90;99.90;;;;;;5032748;28;20049;-85
2022/08/29 02:47:23;;;;;;;0.63;0.20;;;15.90;99.90;;;;;;5064691;28;20048;-84
2022/08/29 02:49:50;;;;;;;0.30;0.30;;;15.90;99.90;;;;;;5018536;28;20318;-84
2022/08/29 02:52:16;;;;;;;0.10;0.10;;;15.80;99.90;;;;;;5050972;28;20128;-85
2022/08/29 02:54:42;;;;;;;1.13;0.52;;;15.80;99.90;;;;;;5051489;28;20135;-86
2022/08/29 02:57:08;;;;;;;0.20;0.10;;;15.80;99.90;;;;;;5052295;28;20045;-85
2022/08/29 02:59:34;;;;;;;0.03;0.03;;;15.80;99.90;;;;;;5050830;28;20384;-84
2022/08/29 03:02:00;;;;;;;0.30;0.10;;;15.70;99.90;;;;;;5030788;28;20060;-85
2022/08/29 03:04:26;;;;;;;0.40;0.10;;;15.70;99.90;;;;;;5050260;28;20056;-87
2022/08/29 03:06:52;;;;;;;0.87;0.47;;;15.70;99.90;;;;;;5052819;28;20522;-84
2022/08/29 03:09:18;;;;;;;0.45;0.10;;;15.70;99.90;;;;;;5071459;28;20056;-86
2022/08/29 03:11:43;;;;;;;0.40;0.20;;;15.70;99.90;;;;;;5033130;28;20049;-86
2022/08/29 03:14:09;;;;;;;0.53;0.10;;;15.70;99.90;;;;;;5034081;28;20132;-85
2022/08/29 03:16:35;;;;;;;0.60;0.10;;;15.70;99.90;;;;;;5034423;28;20472;-85
2022/08/29 03:19:00;;;;;;;0.40;0.20;;;15.70;99.90;;;;;;5047885;28;20051;-84
2022/08/29 03:21:27;;;;;;;0.10;0.10;;;15.70;99.90;;;;;;5034914;28;20072;-84
2022/08/29 03:23:55;;;;;;;0.10;0.03;;;15.60;99.90;;;;;;5051137;28;20077;-85
2022/08/29 03:26:22;;;;;;;0.10;0.05;;;15.60;99.90;;;;;;5017788;28;20048;-85
2022/08/29 03:28:48;;;;;;;0.43;0.13;;;15.60;99.90;;;;;;5063961;28;20045;-85
2022/08/29 03:31:14;;;;;;;0.10;0.10;;;15.60;99.90;;;;;;5037870;28;20125;-84
2022/08/29 03:33:40;;;;;;;0.63;0.35;;;15.60;99.90;;;;;;5057484;28;20037;-84
2022/08/29 03:36:08;;;;;;;0.03;0.03;;;15.60;99.90;;;;;;5049965;28;20052;-85
2022/08/29 03:38:34;;;;;;;1.23;0.57;;;15.60;99.90;;;;;;5055971;28;20437;-86
2022/08/29 03:41:00;;;;;;;0.80;0.17;;;15.60;99.90;;;;;;5071904;28;20525;-85
2022/08/29 03:43:26;;;;;;;0.10;0.10;;;15.60;99.90;;;;;;5056802;28;20079;-85
2022/08/29 03:45:53;;;;;;;0.20;0.20;;;15.60;99.90;;;;;;5057290;28;20446;-85
2022/08/29 03:48:18;;;;;;;0.88;0.50;;;15.60;99.90;;;;;;5020615;28;20436;-85
2022/08/29 03:50:44;;;;;;;0.20;0.10;;;15.60;99.90;;;;;;5055717;28;20078;-84
2022/08/29 03:53:10;;;;;;;0.10;0.10;;;15.60;99.90;;;;;;5033793;28;20174;-85
2022/08/29 03:55:36;;;;;;;0.20;0.17;;;15.60;99.90;;;;;;5050722;28;20049;-85
2022/08/29 03:58:02;;;;;;;0.57;0.20;;;15.60;99.90;;;;;;5066734;28;20579;-85
2022/08/29 04:00:27;;;;;;;2.23;0.40;;;15.60;99.90;;;;;;5072641;28;20048;-84
2022/08/29 04:02:54;;;;;;;0.20;0.20;;;15.60;99.90;;;;;;5070879;28;20052;-85
2022/08/29 04:05:20;;;;;;;;;;;15.70;99.90;;;;;;5036239;28;20041;-84
2022/08/29 04:07:53;;;;;;;0.05;0.03;;;15.70;99.90;;;;;;5055453;28;19927;-84
2022/08/29 04:10:28;;;;;;;0.08;0.08;;;15.70;99.90;;;;;;5065745;28;20048;-85
2022/08/29 04:12:54;;;;;;;0.30;0.10;;;15.70;99.90;;;;;;5062776;28;20041;-85
2022/08/29 04:15:20;;;;;;;0.10;0.10;;;15.70;99.90;;;;;;5073175;28;20483;-84
2022/08/29 04:17:46;;;;;;;0.38;0.35;;;15.70;99.90;;;;;;5073841;28;20283;-85
2022/08/29 04:20:13;;;;;;;0.03;0.03;;;15.70;99.90;;;;;;5056079;28;20036;-84
2022/08/29 04:22:40;;;;;;;0.10;0.10;;;15.70;99.90;;;;;;5069501;28;20083;-85
2022/08/29 04:25:10;;;;;;;0.32;0.10;;;15.70;99.90;;;;;;5072675;28;20044;-86
2022/08/29 04:27:35;;;;;;;0.08;0.08;;;15.70;99.90;;;;;;5056317;28;20080;-84
2022/08/29 04:30:06;;;;;;;0.00;0.00;;;15.70;99.90;;;;;;5054421;28;20072;-84
2022/08/29 04:32:32;;;;;;;0.13;0.10;;;15.70;99.90;;;;;;5064891;28;20055;-84
2022/08/29 04:34:58;;;;;;;0.10;0.10;;;15.70;99.90;;;;;;5055767;28;20036;-85
2022/08/29 04:37:24;;;;;;;0.20;0.20;;;15.70;99.90;;;;;;5067862;28;20063;-85
2022/08/29 04:39:50;;;;;;;0.85;0.13;;;15.70;99.90;;;;;;5073341;28;20522;-85
2022/08/29 04:42:17;;;;;;;1.23;0.30;;;15.70;99.90;;;;;;5059017;28;20106;-85
2022/08/29 04:44:43;;;;;;;0.00;0.00;;;15.70;99.90;;;;;;5064074;28;20052;-85
2022/08/29 04:47:09;;;;;;;0.10;0.10;;;15.70;99.90;;;;;;5056415;28;20045;-85
2022/08/29 04:49:35;;;;;;;0.10;0.10;;;15.70;99.90;;;;;;5054632;28;20120;-85
2022/08/29 04:52:00;;;;;;;0.13;0.13;;;15.70;99.90;;;;;;5059104;28;20174;-85
2022/08/29 04:54:26;;;;;;;0.10;0.00;;;15.70;99.90;;;;;;5071513;28;20045;-86
2022/08/29 04:56:52;;;;;;;0.10;0.10;;;15.60;99.90;;;;;;5022421;28;20056;-84
2022/08/29 04:59:18;;;;;;;0.10;0.10;;;15.60;99.90;;;;;;5037983;28;20044;-85
2022/08/29 05:01:44;;;;;;;0.08;0.08;;;15.70;99.90;;;;;;5054091;28;20048;-85
2022/08/29 05:04:10;;;;;;;0.00;0.00;;;15.70;99.90;;;;;;5049319;28;20049;-85
2022/08/29 05:06:36;;;;;;;0.10;0.10;;;15.60;99.90;;;;;;5043500;28;20045;-84
2022/08/29 05:09:02;;;;;;;0.20;0.20;;;15.60;99.90;;;;;;5041896;28;20076;-85
2022/08/29 05:11:30;;;;;;;0.22;0.10;;;15.60;99.90;;;;;;5054872;28;20036;-85
2022/08/29 05:13:57;;;;;;;0.10;0.10;;;15.60;99.90;;;;;;5025037;28;20051;-85
2022/08/29 05:16:23;;;;;;;0.40;0.40;;;15.70;99.90;;;;;;5050032;28;20584;-85
2022/08/29 05:18:49;;;;;;;0.30;0.20;;;15.70;99.90;;;;;;5068307;28;20052;-85
2022/08/29 05:21:30;;;;;;;0.08;0.08;;;15.70;99.90;;;;;;5036527;28;20307;-85
2022/08/29 05:23:57;;;;;;;0.10;0.10;;;15.70;99.90;;;;;;5066909;28;20114;-85
2022/08/29 05:26:24;;;;;;;0.00;0.00;;;15.70;99.90;;;;;;5054719;28;20040;-85
2022/08/29 05:28:50;;;;;;;0.00;0.00;;;15.70;99.90;;;;;;5072371;28;20458;-88
2022/08/29 05:31:16;;;;;;;0.20;0.20;;;15.70;99.90;;;;;;5055792;28;20083;-88
2022/08/29 05:33:42;;;;;;;0.28;0.17;;;15.70;99.90;;;;;;5037374;28;20559;-87
2022/08/29 05:36:09;;;;;;;0.10;0.10;;;15.70;99.90;;;;;;5024010;28;20116;-85
2022/08/29 05:38:35;;;;;;;0.10;0.10;;;15.70;99.90;;;;;;5052449;28;20049;-85
2022/08/29 05:41:01;;;;;;;0.00;0.00;;;15.70;99.90;;;;;;5052042;28;20041;-86
2022/08/29 05:43:28;;;;;;;0.00;0.00;;;15.80;99.90;;;;;;5034553;28;20302;-86
2022/08/29 05:46:05;;;;;;;0.00;0.00;;;15.80;99.90;;;;;;5035019;28;20117;-86
2022/08/29 05:48:32;;;;;;;0.32;0.10;;;15.90;99.90;;;;;;5052359;28;20052;-86
2022/08/29 05:50:58;;;;;;;0.00;0.00;;;15.90;99.90;;;;;;5052268;28;20049;-86
2022/08/29 05:53:25;;;;;;;;;;;15.90;99.90;;;;;;5041489;28;20084;-86
2022/08/29 05:55:52;;;;;;;0.15;0.10;;;16.00;99.90;;;;;;5034224;28;19928;-86
2022/08/29 05:58:17;;;;;;;0.45;0.17;;;16.00;99.90;;;;;;5052013;28;20127;-83
2022/08/29 06:00:45;;;;;;;0.00;0.00;;;16.00;99.90;;;;;;5052308;28;20124;-88
2022/08/29 06:03:12;;;;;;;0.63;0.35;;;16.10;99.90;;;;;;5034356;28;20287;-90
2022/08/29 06:05:39;;;;;;;0.10;0.10;;;16.20;99.90;;;;;;5060885;28;20032;-84
2022/08/29 06:08:05;;;;;;;0.00;0.00;;;16.20;99.90;;;;;;5051541;28;20116;-89
2022/08/29 06:10:31;;;;;;;;;;;16.30;99.90;;;;;;5040970;28;20071;-93
2022/08/29 06:12:57;;;;;;;0.10;0.10;;;16.30;99.90;;;;;;5051348;28;20358;-92
2022/08/29 06:15:24;;;;;;;0.35;0.35;;;16.30;99.90;;;;;;5006462;28;20052;-93
2022/08/29 06:17:50;;;;;;;0.00;0.00;;;16.40;99.90;;;;;;5022173;28;20434;-92
2022/08/29 06:20:15;;;;;;;0.00;0.00;;;16.40;99.90;;;;;;5046026;28;20036;-91
2022/08/29 06:22:41;;;;;;;0.30;0.05;;;16.50;99.90;;;;;;5028682;28;20040;-90
2022/08/29 06:25:08;;;;;;;0.10;0.10;;;16.60;99.90;;;;;;5034117;28;20136;-85
2022/08/29 06:27:34;;;;;;;0.00;0.00;;;16.80;99.90;;;;;;5032882;28;20048;-87
2022/08/29 06:30:00;;;;;;;0.00;0.00;;;16.80;99.90;;;;;;5026725;28;20044;-86
2022/08/29 06:32:26;;;;;;;0.08;0.08;;;16.90;99.90;;;;;;5036048;28;20114;-85
2022/08/29 06:34:51;;;;;;;0.10;0.10;;;16.90;99.90;;;;;;5033374;28;20040;-86
2022/08/29 06:37:17;;;;;;;0.20;0.17;;;17.00;99.90;;;;;;5055606;28;20352;-86
2022/08/29 06:39:43;;;;;;;0.10;0.10;;;17.20;99.90;;;;;;5061964;28;20403;-85
2022/08/29 06:42:08;;;;;;;0.10;0.10;;;17.30;99.90;;;;;;5058219;28;20049;-87
2022/08/29 06:44:34;;;;;;;0.03;0.00;;;17.40;99.90;;;;;;5036519;28;20093;-85
2022/08/29 06:47:00;;;;;;;0.10;0.10;;;17.40;99.90;;;;;;5032753;28;20310;-87
2022/08/29 06:49:26;;;;;;;0.00;0.00;;;17.40;99.90;;;;;;5016875;28;20045;-86
2022/08/29 06:51:52;;;;;;;0.00;0.00;;;17.50;99.90;;;;;;5051801;28;20642;-85
2022/08/29 06:54:20;;;;;;;0.10;0.10;;;17.50;99.90;;;;;;5052608;28;20055;-86
2022/08/29 06:56:47;;;;;;;0.17;0.13;;;17.40;99.90;;;;;;5058534;28;20179;-85
2022/08/29 06:59:13;;;;;;;0.10;0.10;;;17.50;99.90;;;;;;5046775;28;20053;-90
2022/08/29 07:01:41;;;;;;;0.00;0.00;;;17.50;99.90;;;;;;5031742;28;20075;-87
2022/08/29 07:04:07;;;;;;;0.10;0.10;;;17.50;99.90;;;;;;5033610;28;20060;-92
2022/08/29 07:06:34;;;;;;;0.00;0.00;;;17.50;99.90;;;;;;5048552;28;20534;-92
2022/08/29 07:09:00;;;;;;;0.20;0.10;;;17.50;99.90;;;;;;5041402;28;20105;-90
2022/08/29 07:11:28;;;;;;;0.10;0.10;;;17.50;99.90;;;;;;5036865;28;20033;-87
2022/08/29 07:14:01;;;;;;;0.00;0.00;;;17.50;99.90;;;;;;5034489;28;20494;-87
2022/08/29 07:16:27;;;;;;;0.00;0.00;;;17.60;99.90;;;;;;5055650;28;20543;-85
2022/08/29 07:18:54;;;;;;;0.03;0.03;;;17.60;99.90;;;;;;5048379;28;20142;-86
2022/08/29 07:21:20;;;;;;;;;;;17.60;99.90;;;;;;5049435;28;20040;-85
2022/08/29 07:23:47;;;;;;;0.00;0.00;;;17.70;99.90;;;;;;5051817;28;19951;-85
2022/08/29 07:26:27;;;;;;;0.70;0.17;;;17.80;99.90;;;;;;5052832;28;20037;-85
2022/08/29 07:28:55;;;;;;;0.00;0.00;;;17.90;99.90;;;;;;5040436;28;20052;-85
2022/08/29 07:31:21;;;;;;;0.15;0.15;;;17.90;99.90;;;;;;5066251;28;20458;-86
2022/08/29 07:33:47;;;;;;;0.37;0.20;;;18.00;99.90;;;;;;5039876;28;20045;-86
2022/08/29 07:36:13;;;;;;;0.03;0.03;;;18.00;99.90;;;;;;5046326;28;20496;-86
2022/08/29 07:38:38;;;;;;;0.20;0.10;;;18.10;99.90;;;;;;5055185;28;20041;-86
2022/08/29 07:41:07;;;;;;;0.10;0.00;;;18.10;99.90;;;;;;5042426;28;20299;-87
2022/08/29 07:43:32;;;;;;;1.00;0.10;;;18.20;99.90;;;;;;5062964;28;20283;-86
2022/08/29 07:45:58;;;;;;;0.28;0.17;;;18.40;99.90;;;;;;5071395;28;20188;-85
2022/08/29 07:48:25;;;;;;;1.33;0.20;;;18.60;99.90;;;;;;5042854;28;20384;-85
2022/08/29 07:50:51;;;;;;;0.30;0.10;;;18.80;99.90;;;;;;5056067;28;20563;-86
2022/08/29 07:53:18;;;;;;;0.22;0.10;;;18.90;99.90;;;;;;5048295;28;20048;-86
2022/08/29 07:55:44;;;;;;;0.32;0.10;;;18.90;99.90;;;;;;5070245;28;20052;-85
2022/08/29 07:58:10;;;;;;;0.10;0.10;;;18.90;99.90;;;;;;5068383;28;20544;-85
2022/08/29 08:00:36;;;;;;;0.47;0.10;;;19.00;99.90;;;;;;5071020;28;20093;-86
2022/08/29 08:03:02;;;;;;;0.52;0.10;;;18.90;99.90;;;;;;5052142;28;20049;-85
2022/08/29 08:05:27;;;;;;;0.98;0.15;;;19.00;99.90;;;;;;5048001;28;20153;-85
2022/08/29 08:07:53;;;;;;;0.13;0.13;;;19.00;99.90;;;;;;5062608;28;20044;-84
2022/08/29 08:10:19;;;;;;;0.10;0.10;;;19.20;99.90;;;;;;5038837;28;20395;-86
2022/08/29 08:12:48;;;;;;;0.00;0.00;;;19.40;99.90;;;;;;5054461;28;20126;-86
2022/08/29 08:15:15;;;;;;;0.43;0.22;;;19.50;99.90;;;;;;5044547;28;20040;-86
2022/08/29 08:17:41;;;;;;;0.20;0.20;;;19.70;99.90;;;;;;5022752;28;20052;-86
2022/08/29 08:20:08;;;;;;;0.00;0.00;;;19.80;99.90;;;;;;5049729;28;20048;-86
2022/08/29 08:22:34;;;;;;;0.10;0.10;;;19.90;99.90;;;;;;5066522;28;20052;-86
2022/08/29 08:25:00;;;;;;;0.17;0.17;;;20.20;99.90;;;;;;5042576;28;20045;-86
2022/08/29 08:27:26;;;;;;;0.13;0.13;;;20.40;99.90;;;;;;5020542;28;20040;-86
2022/08/29 08:29:52;;;;;;;0.08;0.08;;;20.50;99.90;;;;;;5043522;28;20132;-86
2022/08/29 08:32:18;;;;;;;0.00;0.00;;;20.60;99.90;;;;;;5050129;28;20052;-85
2022/08/29 08:34:44;;;;;;;0.35;0.35;;;20.60;99.90;;;;;;5038597;28;20132;-86
2022/08/29 08:37:11;;;;;;;0.10;0.10;;;20.60;99.90;;;;;;5062769;28;20119;-85
2022/08/29 08:39:37;;;;;;;0.05;0.05;;;20.60;99.90;;;;;;5060074;28;20542;-86
2022/08/29 08:42:13;;;;;;;;;;;20.60;99.90;;;;;;5068524;28;20056;-86
2022/08/29 08:44:48;;;;;;;0.10;0.10;;;20.70;99.90;;;;;;5043679;28;19974;-86
2022/08/29 08:47:24;;;;;;;0.00;0.00;;;20.70;99.90;;;;;;5027262;28;20048;-86
2022/08/29 08:50:16;;;;;;;0.25;0.13;;;20.60;99.90;;;;;;5044239;28;20040;-84
2022/08/29 08:52:51;;;;;;;0.20;0.20;;;20.50;99.90;;;;;;5065621;28;20048;-85
2022/08/29 08:55:24;;;;;;;0.30;0.30;;;20.40;99.90;;;;;;5049963;28;20138;-86
2022/08/29 08:58:14;;;;;;;0.47;0.28;;;20.30;99.90;;;;;;5053957;28;20057;-85
2022/08/29 09:00:49;;;;;;;0.20;0.20;;;20.20;99.90;;;;;;5053567;28;20053;-86
2022/08/29 09:03:24;;;;;;;0.10;0.10;;;20.10;99.90;;;;;;5053449;28;20398;-86
2022/08/29 09:06:00;;;;;;;0.30;0.25;;;20.00;99.90;;;;;;5085833;28;20063;-86
2022/08/29 09:08:44;;;;;;;0.25;0.10;;;19.90;99.90;;;;;;5033175;28;20385;-86
2022/08/29 09:11:28;;;;;;;0.13;0.13;;;19.90;99.90;;;;;;5044973;28;20053;-86
2022/08/29 09:14:16;;;;;;;0.93;0.25;;;19.80;99.90;;;;;;5065878;28;20045;-86
2022/08/29 09:16:47;;;;;;;0.10;0.10;;;19.80;99.90;;;;;;5064048;28;20522;-86
2022/08/29 09:19:13;;;;;;;0.17;0.17;;;19.80;99.90;;;;;;5051151;28;20049;-84
2022/08/29 09:21:52;;;;;;;0.40;0.10;;;19.80;99.90;;;;;;5048368;28;20044;-84
2022/08/29 09:24:32;;;;;;;0.75;0.20;;;19.80;99.90;;;;;;5053400;28;20037;-89
2022/08/29 09:26:58;;;;;;;0.10;0.10;;;19.80;99.90;;;;;;5046669;28;20056;-89
2022/08/29 09:29:29;;;;;;;0.00;0.00;;;19.80;99.90;;;;;;5052447;28;20148;-89
2022/08/29 09:32:08;;;;;;;0.40;0.40;;;19.90;99.90;;;;;;5035471;28;20049;-89
2022/08/29 09:34:37;;;;;;;0.20;0.20;;;19.90;99.90;;;;;;5035424;28;20140;-89
2022/08/29 09:37:30;;;;;;;0.10;0.10;;;19.90;99.90;;;;;;5052066;28;20128;-89
2022/08/29 09:40:12;;;;;;;0.70;0.30;;;19.90;99.90;;;;;;5035315;28;20147;-89
2022/08/29 09:42:45;;;;;;;0.20;0.20;;;20.00;99.90;;;;;;5051827;28;20041;-89
2022/08/29 09:45:23;;;;;;;0.05;0.05;;;20.00;99.90;;;;;;5052432;28;20084;-89
2022/08/29 09:48:13;;;;;;;0.35;0.10;;;20.00;99.90;;;;;;5051736;28;20048;-89
2022/08/29 09:50:39;;;;;;;0.30;0.30;;;20.00;99.90;;;;;;5051827;28;20045;-89
2022/08/29 09:53:04;;;;;;;0.52;0.30;;;20.00;99.90;;;;;;5051959;28;20400;-89
2022/08/29 09:55:33;;;;;;;0.10;0.10;;;20.00;99.90;;;;;;5030695;28;20045;-89
2022/08/29 09:58:06;;;;;;;0.08;0.08;;;20.00;99.90;;;;;;5048530;28;20470;-89
2022/08/29 10:00:39;;;;;;;0.43;0.15;;;20.10;99.90;;;;;;5032196;28;20049;-89
2022/08/29 10:03:09;;;;;;;0.20;0.20;;;20.10;99.90;;;;;;5032248;28;20050;-88
2022/08/29 10:05:41;;;;;;;0.20;0.17;;;20.10;99.90;;;;;;5051814;28;20037;-89
2022/08/29 10:08:33;;;;;;;0.20;0.20;;;20.10;99.90;;;;;;5053834;28;20076;-91
2022/08/29 10:11:16;;;;;;;0.28;0.28;;;20.10;99.90;;;;;;5064780;28;20036;-94
2022/08/29 10:13:42;;;;;;;0.52;0.30;;;20.10;99.90;;;;;;5089580;28;20435;-94
2022/08/29 10:16:26;;;;;;;0.47;0.28;;;20.00;99.90;;;;;;5046399;28;20127;-94
2022/08/29 10:18:56;;;;;;;0.32;0.13;;;20.00;99.90;;;;;;5035333;28;20053;-94
2022/08/29 10:21:33;;;;;;;0.30;0.20;;;20.00;99.90;;;;;;5056066;28;20155;-96
2022/08/29 10:24:20;;;;;;;0.10;0.10;;;20.00;99.90;;;;;;5036574;28;20138;-95
2022/08/29 10:27:15;;;;;;;0.30;0.30;;;20.00;99.90;;;;;;5039722;28;20044;-94
2022/08/29 10:30:10;;;;;;;0.20;0.20;;;20.10;99.90;;;;;;5053070;28;20045;-94
2022/08/29 10:32:42;;;;;;;0.10;0.10;;;20.10;99.90;;;;;;5039222;28;20367;-95
2022/08/29 10:35:16;;;;;;;0.30;0.30;;;20.20;99.90;;;;;;5056499;28;20095;-93
2022/08/29 10:37:54;;;;;;;0.22;0.20;;;20.30;99.90;;;;;;5054594;28;20060;-96
2022/08/29 10:40:35;;;;;;;0.10;0.10;;;20.30;99.90;;;;;;5058618;28;20044;-91
2022/08/29 10:43:19;;;;;;;0.30;0.30;;;20.40;99.90;;;;;;5061212;28;20052;-94
2022/08/29 10:46:03;;;;;;;0.40;0.22;;;20.50;99.90;;;;;;5072835;28;20040;-85
2022/08/29 10:48:36;;;;;;;0.20;0.20;;;20.50;99.90;;;;;;5059119;28;20055;-86
2022/08/29 10:51:15;;;;;;;0.20;0.20;;;20.50;99.90;;;;;;5070926;28;20116;-89
2022/08/29 10:53:46;;;;;;;0.25;0.25;;;20.50;99.90;;;;;;5076702;28;20076;-89
2022/08/29 10:56:21;;;;;;;0.20;0.20;;;20.50;99.90;;;;;;5062369;28;20041;-89
2022/08/29 10:59:04;;;;;;;0.10;0.10;;;20.40;99.90;;;;;;5052861;28;20052;-89
2022/08/29 11:01:35;;;;;;;0.50;0.28;;;20.40;99.90;;;;;;5038413;28;20052;-89
2022/08/29 11:04:17;;;;;;;0.20;0.20;;;20.40;99.90;;;;;;5038678;28;20041;-89
2022/08/29 11:06:49;;;;;;;0.10;0.00;;;20.40;99.90;;;;;;5021948;28;20041;-89
2022/08/29 11:09:35;;;;;;;0.25;0.25;;;20.40;99.90;;;;;;5038675;28;20088;-90
2022/08/29 11:12:16;;;;;;;0.20;0.20;;;20.40;99.90;;;;;;5055711;28;20048;-90
2022/08/29 11:14:57;;;;;;;0.17;0.17;;;20.30;99.90;;;;;;5041058;28;20051;-90
2022/08/29 11:17:28;;;;;;;0.20;0.20;;;20.30;99.90;;;;;;5041267;28;20097;-90
2022/08/29 11:20:10;;;;;;;0.20;0.20;;;20.30;99.90;;;;;;5057043;28;20120;-90
2022/08/29 11:22:55;;;;;;;0.20;0.20;;;20.40;99.90;;;;;;5043222;28;20037;-90
2022/08/29 11:25:21;;;;;;;0.20;0.20;;;20.40;99.90;;;;;;5040330;28;20036;-90
2022/08/29 11:28:11;;;;;;;0.35;0.32;;;20.40;99.90;;;;;;5036912;28;20123;-88
2022/08/29 11:30:42;;;;;;;0.20;0.20;;;20.40;99.90;;;;;;5048882;28;20044;-91
2022/08/29 11:33:32;;;;;;;1.20;1.10;;;20.40;99.90;;;;;;5021288;28;20103;-86
2022/08/29 11:36:24;;;;;;;0.20;0.20;;;20.50;99.90;;;;;;5045909;28;20068;-86
2022/08/29 11:39:10;;;;;;;0.05;0.00;;;20.50;99.90;;;;;;5057217;28;20124;-87
2022/08/29 11:41:40;;;;;;;0.30;0.30;;;20.50;99.90;;;;;;5057125;28;20091;-86
2022/08/29 11:44:25;;;;;;;0.20;0.10;;;20.50;99.90;;;;;;5036926;28;20049;-86
2022/08/29 11:46:51;;;;;;;0.40;0.20;;;20.60;99.90;;;;;;5036671;28;20087;-86
2022/08/29 11:49:46;;;;;;;;;;;20.60;99.90;;;;;;5071798;28;20051;-86
2022/08/29 11:52:11;;;;;;;0.17;0.10;;;20.70;99.90;;;;;;5035605;28;19921;-86
2022/08/29 11:54:46;;;;;;;0.55;0.10;;;20.80;99.90;;;;;;5039676;28;20067;-86
2022/08/29 11:57:12;;;;;;;0.50;0.30;;;20.90;99.90;;;;;;5050936;28;20049;-87
2022/08/29 11:59:47;;;;;;;0.00;0.00;;;20.90;99.90;;;;;;5043960;28;20509;-86
2022/08/29 12:02:31;;;;;;;0.20;0.15;;;21.00;99.90;;;;;;5039042;28;20045;-86
2022/08/29 12:05:19;;;;;;;0.40;0.32;;;21.00;99.90;;;;;;5071932;28;20037;-86
2022/08/29 12:08:02;;;;;;;0.13;0.13;;;21.10;99.90;;;;;;5059614;28;20502;-86
2022/08/29 12:10:30;;;;;;;0.20;0.10;;;21.20;99.90;;;;;;5057576;28;20402;-86
2022/08/29 12:13:02;;;;;;;0.10;0.10;;;21.20;99.90;;;;;;5054276;28;20054;-86
2022/08/29 12:15:31;;;;;;;0.20;0.20;;;21.30;99.90;;;;;;5054303;28;20048;-86
2022/08/29 12:18:12;;;;;;;0.13;0.13;;;21.40;99.90;;;;;;5059104;28;20047;-86
2022/08/29 12:20:42;;;;;;;0.30;0.30;;;21.50;99.90;;;;;;5040354;28;20081;-86
2022/08/29 12:23:13;;;;;;;0.47;0.10;;;21.50;99.90;;;;;;5052519;28;20040;-86
2022/08/29 12:25:48;;;;;;;0.25;0.25;;;21.50;99.90;;;;;;5048910;28;20483;-87
2022/08/29 12:28:17;;;;;;;0.55;0.20;;;21.60;99.90;;;;;;5043466;28;20606;-86
2022/08/29 12:31:08;;;;;;;0.50;0.15;;;21.60;99.90;;;;;;5034706;28;20052;-86
2022/08/29 12:33:40;;;;;;;0.50;0.22;;;21.70;99.90;;;;;;5040346;28;20064;-87
2022/08/29 12:36:09;;;;;;;0.47;0.20;;;21.70;99.90;;;;;;5071259;28;20119;-86
2022/08/29 12:38:48;;;;;;;0.15;0.15;;;21.80;99.90;;;;;;5061627;28;20064;-86
2022/08/29 12:41:45;;;;;;;0.43;0.43;;;21.90;99.90;;;;;;5051879;28;20045;-86
2022/08/29 12:44:15;;;;;;;0.13;0.13;;;22.00;99.90;;;;;;5048581;28;20471;-86
2022/08/29 12:46:44;;;;;;;0.40;0.40;;;22.10;99.90;;;;;;5054206;28;20064;-86
2022/08/29 12:49:25;;;;;;;0.30;0.15;;;22.20;99.90;;;;;;5049147;28;20044;-86
2022/08/29 12:52:00;;;;;;;0.20;0.20;;;22.20;99.90;;;;;;5053587;28;20088;-87
2022/08/29 12:54:40;;;;;;;0.20;0.20;;;22.10;99.90;;;;;;5047098;28;20041;-85
2022/08/29 12:57:15;;;;;;;0.35;0.20;;;22.00;99.90;;;;;;5035869;28;20060;-84
2022/08/29 12:59:50;;;;;;;0.65;0.32;;;22.00;99.90;;;;;;5060827;28;20513;-86
2022/08/29 13:02:29;;;;;;;0.20;0.20;;;21.90;99.90;;;;;;5035812;28;20091;-86
2022/08/29 13:04:55;;;;;;;0.30;0.30;;;21.80;99.90;;;;;;5050653;28;20051;-86
2022/08/29 13:07:22;;;;;;;0.10;0.10;;;21.80;99.90;;;;;;5038258;28;20047;-85
2022/08/29 13:09:56;;;;;;;0.20;0.15;;;21.80;99.90;;;;;;5045650;28;20103;-84